sensor_id;sensor_type;location;lat;lon;timestamp;pressure;altitude;pressure_sealevel;temperature;humidity
75455;BME280;64035;48.358;2.122;2022-12-17T00:01:04;101353.16;;;0.52;82.18
75455;BME280;64035;48.358;2.122;2022-12-17T00:02:24;101356.75;;;0.54;82.36
75455;BME280;64035;48.358;2.122;2022-12-17T00:03:42;101360.16;;;0.55;81.83
75455;BME280;64035;48.358;2.122;2022-12-17T00:05:01;101354.97;;;0.53;82.19
75455;BME280;64035;48.358;2.122;2022-12-17T00:06:20;101345.31;;;0.49;81.76
75455;BME280;64035;48.358;2.122;2022-12-17T00:07:40;101345.63;;;0.52;82.01
75455;BME280;64035;48.358;2.122;2022-12-17T00:08:59;101345.44;;;0.51;81.75
75455;BME280;64035;48.358;2.122;2022-12-17T00:10:18;101346.06;;;0.48;82.17
75455;BME280;64035;48.358;2.122;2022-12-17T00:11:37;101345.31;;;0.49;82.22
75455;BME280;64035;48.358;2.122;2022-12-17T00:12:56;101344.44;;;0.49;82.21
75455;BME280;64035;48.358;2.122;2022-12-17T00:14:15;101342.31;;;0.45;82.42
75455;BME280;64035;48.358;2.122;2022-12-17T00:15:34;101348.88;;;0.51;83.10
75455;BME280;64035;48.358;2.122;2022-12-17T00:16:53;101359.25;;;0.54;82.44
75455;BME280;64035;48.358;2.122;2022-12-17T00:18:12;101348.28;;;0.54;82.29
75455;BME280;64035;48.358;2.122;2022-12-17T00:19:31;101360.63;;;0.59;82.51
75455;BME280;64035;48.358;2.122;2022-12-17T00:20:52;101362.25;;;0.59;82.33
75455;BME280;64035;48.358;2.122;2022-12-17T00:22:11;101366.13;;;0.64;82.29
75455;BME280;64035;48.358;2.122;2022-12-17T00:23:29;101361.66;;;0.61;82.04
75455;BME280;64035;48.358;2.122;2022-12-17T00:24:48;101359.16;;;0.61;81.63
75455;BME280;64035;48.358;2.122;2022-12-17T00:26:07;101359.16;;;0.61;81.94
75455;BME280;64035;48.358;2.122;2022-12-17T00:27:26;101367.94;;;0.65;81.14
75455;BME280;64035;48.358;2.122;2022-12-17T00:28:46;101354.44;;;0.64;82.24
75455;BME280;64035;48.358;2.122;2022-12-17T00:30:06;101350.38;;;0.58;81.63
75455;BME280;64035;48.358;2.122;2022-12-17T00:31:26;101357.84;;;0.65;82.07
75455;BME280;64035;48.358;2.122;2022-12-17T00:32:46;101365.09;;;0.62;82.09
75455;BME280;64035;48.358;2.122;2022-12-17T00:34:05;101357.69;;;0.63;81.87
75455;BME280;64035;48.358;2.122;2022-12-17T00:35:27;101362.88;;;0.65;82.02
75455;BME280;64035;48.358;2.122;2022-12-17T00:36:46;101344.78;;;0.60;81.58
75455;BME280;64035;48.358;2.122;2022-12-17T00:38:05;101357.84;;;0.65;82.35
75455;BME280;64035;48.358;2.122;2022-12-17T00:39:24;101361.72;;;0.70;81.70
75455;BME280;64035;48.358;2.122;2022-12-17T00:40:52;101347.00;;;0.66;81.50
75455;BME280;64035;48.358;2.122;2022-12-17T00:42:11;101338.28;;;0.62;81.74
75455;BME280;64035;48.358;2.122;2022-12-17T00:43:30;101352.03;;;0.66;81.57
75455;BME280;64035;48.358;2.122;2022-12-17T00:44:49;101350.59;;;0.68;81.84
75455;BME280;64035;48.358;2.122;2022-12-17T00:46:08;101348.50;;;0.64;81.49
75455;BME280;64035;48.358;2.122;2022-12-17T00:47:27;101351.91;;;0.64;81.62
75455;BME280;64035;48.358;2.122;2022-12-17T00:48:46;101344.19;;;0.63;82.29
75455;BME280;64035;48.358;2.122;2022-12-17T00:50:06;101351.31;;;0.67;81.61
75455;BME280;64035;48.358;2.122;2022-12-17T00:51:25;101346.72;;;0.63;81.38
75455;BME280;64035;48.358;2.122;2022-12-17T00:52:44;101333.50;;;0.57;81.48
75455;BME280;64035;48.358;2.122;2022-12-17T00:54:03;101349.66;;;0.59;81.50
75455;BME280;64035;48.358;2.122;2022-12-17T00:55:22;101353.06;;;0.59;81.49
75455;BME280;64035;48.358;2.122;2022-12-17T00:56:42;101345.94;;;0.55;81.66
75455;BME280;64035;48.358;2.122;2022-12-17T00:58:01;101353.94;;;0.60;82.42
75455;BME280;64035;48.358;2.122;2022-12-17T00:59:21;101352.50;;;0.62;82.25
75455;BME280;64035;48.358;2.122;2022-12-17T01:00:40;101340.63;;;0.61;81.83
75455;BME280;64035;48.358;2.122;2022-12-17T01:01:59;101339.44;;;0.57;81.78
75455;BME280;64035;48.358;2.122;2022-12-17T01:03:19;101344.78;;;0.60;81.60
75455;BME280;64035;48.358;2.122;2022-12-17T01:04:40;101344.19;;;0.63;81.97
75455;BME280;64035;48.358;2.122;2022-12-17T01:06:02;101343.59;;;0.65;81.50
75455;BME280;64035;48.358;2.122;2022-12-17T01:07:21;101348.63;;;0.65;82.09
75455;BME280;64035;48.358;2.122;2022-12-17T01:08:41;101346.28;;;0.67;81.76
75455;BME280;64035;48.358;2.122;2022-12-17T01:10:00;101344.09;;;0.70;81.71
75455;BME280;64035;48.358;2.122;2022-12-17T01:11:18;101342.47;;;0.70;81.70
75455;BME280;64035;48.358;2.122;2022-12-17T01:12:37;101346.59;;;0.70;81.53
75455;BME280;64035;48.358;2.122;2022-12-17T01:13:57;101345.88;;;0.71;81.75
75455;BME280;64035;48.358;2.122;2022-12-17T01:15:16;101350.19;;;0.72;81.92
75455;BME280;64035;48.358;2.122;2022-12-17T01:16:35;101343.03;;;0.68;81.17
75455;BME280;64035;48.358;2.122;2022-12-17T01:17:54;101351.31;;;0.67;81.20
75455;BME280;64035;48.358;2.122;2022-12-17T01:19:13;101354.56;;;0.66;81.50
75455;BME280;64035;48.358;2.122;2022-12-17T01:20:32;101364.97;;;0.69;81.37
75455;BME280;64035;48.358;2.122;2022-12-17T01:21:51;101357.25;;;0.67;81.73
75455;BME280;64035;48.358;2.122;2022-12-17T01:23:10;101355.63;;;0.68;82.24
75455;BME280;64035;48.358;2.122;2022-12-17T01:24:29;101352.03;;;0.66;81.72
75455;BME280;64035;48.358;2.122;2022-12-17T01:26:00;101360.81;;;0.69;82.04
75455;BME280;64035;48.358;2.122;2022-12-17T01:27:20;101365.28;;;0.72;81.62
75455;BME280;64035;48.358;2.122;2022-12-17T01:28:39;101353.84;;;0.67;81.62
75455;BME280;64035;48.358;2.122;2022-12-17T01:29:59;101374.59;;;0.73;81.49
75455;BME280;64035;48.358;2.122;2022-12-17T01:31:18;101365.13;;;0.70;81.67
75455;BME280;64035;48.358;2.122;2022-12-17T01:32:37;101369.72;;;0.74;81.86
75455;BME280;64035;48.358;2.122;2022-12-17T01:33:57;101366.47;;;0.75;81.58
75455;BME280;64035;48.358;2.122;2022-12-17T01:35:16;101361.00;;;0.71;81.43
75455;BME280;64035;48.358;2.122;2022-12-17T01:36:35;101365.59;;;0.75;81.60
75455;BME280;64035;48.358;2.122;2022-12-17T01:37:53;101372.72;;;0.79;81.91
75455;BME280;64035;48.358;2.122;2022-12-17T01:39:12;101366.63;;;0.77;81.90
75455;BME280;64035;48.358;2.122;2022-12-17T01:40:31;101363.78;;;0.74;80.75
75455;BME280;64035;48.358;2.122;2022-12-17T01:41:50;101371.34;;;0.74;81.12
75455;BME280;64035;48.358;2.122;2022-12-17T01:43:13;101365.59;;;0.75;81.25
75455;BME280;64035;48.358;2.122;2022-12-17T01:45:57;101372.41;;;0.76;81.23
75455;BME280;64035;48.358;2.122;2022-12-17T01:47:17;101373.47;;;0.78;82.05
75455;BME280;64035;48.358;2.122;2022-12-17T01:48:39;101370.94;;;0.78;81.37
75455;BME280;64035;48.358;2.122;2022-12-17T01:50:14;101380.28;;;0.79;81.39
75455;BME280;64035;48.358;2.122;2022-12-17T01:51:34;101373.72;;;0.72;81.04
75455;BME280;64035;48.358;2.122;2022-12-17T01:52:56;101373.59;;;0.71;81.03
75455;BME280;64035;48.358;2.122;2022-12-17T01:54:17;101370.75;;;0.68;81.36
75455;BME280;64035;48.358;2.122;2022-12-17T01:55:37;101370.56;;;0.66;81.60
75455;BME280;64035;48.358;2.122;2022-12-17T01:56:56;101357.84;;;0.65;81.39
75455;BME280;64035;48.358;2.122;2022-12-17T01:58:17;101369.13;;;0.68;81.34
75455;BME280;64035;48.358;2.122;2022-12-17T01:59:44;101356.06;;;0.64;81.47
75455;BME280;64035;48.358;2.122;2022-12-17T02:01:14;101378.13;;;0.66;81.37
75455;BME280;64035;48.358;2.122;2022-12-17T02:02:33;101370.56;;;0.66;81.26
75455;BME280;64035;48.358;2.122;2022-12-17T02:03:53;101370.44;;;0.65;81.84
75455;BME280;64035;48.358;2.122;2022-12-17T02:05:12;101375.00;;;0.60;81.57
75455;BME280;64035;48.358;2.122;2022-12-17T02:06:34;101381.66;;;0.60;81.64
75455;BME280;64035;48.358;2.122;2022-12-17T02:11:32;101390.84;;;0.59;81.55
75455;BME280;64035;48.358;2.122;2022-12-17T02:12:57;101397.09;;;0.63;82.00
75455;BME280;64035;48.358;2.122;2022-12-17T02:14:32;101404.38;;;0.68;81.79
75455;BME280;64035;48.358;2.122;2022-12-17T02:15:57;101400.97;;;0.68;82.38
75455;BME280;64035;48.358;2.122;2022-12-17T02:17:20;101407.97;;;0.70;82.17
75455;BME280;64035;48.358;2.122;2022-12-17T02:19:16;101412.56;;;0.74;81.29
75455;BME280;64035;48.358;2.122;2022-12-17T02:20:38;101410.94;;;0.75;81.30
75455;BME280;64035;48.358;2.122;2022-12-17T02:22:07;101408.41;;;0.75;81.70
75455;BME280;64035;48.358;2.122;2022-12-17T02:23:55;101414.97;;;0.82;81.49
75455;BME280;64035;48.358;2.122;2022-12-17T02:25:54;101404.44;;;0.77;81.37
75455;BME280;64035;48.358;2.122;2022-12-17T02:27:15;101407.69;;;0.76;81.10
75455;BME280;64035;48.358;2.122;2022-12-17T02:28:37;101408.13;;;0.81;81.55
75455;BME280;64035;48.358;2.122;2022-12-17T02:30:01;101413.34;;;0.82;81.19
75455;BME280;64035;48.358;2.122;2022-12-17T02:31:23;101423.13;;;0.79;80.90
75455;BME280;64035;48.358;2.122;2022-12-17T02:32:44;101406.78;;;0.75;80.59
75455;BME280;64035;48.358;2.122;2022-12-17T02:34:04;101410.19;;;0.76;81.40
75455;BME280;64035;48.358;2.122;2022-12-17T02:35:28;101405.72;;;0.73;80.82
75455;BME280;64035;48.358;2.122;2022-12-17T02:36:50;101407.69;;;0.76;81.41
75455;BME280;64035;48.358;2.122;2022-12-17T02:38:20;101406.06;;;0.76;81.23
75455;BME280;64035;48.358;2.122;2022-12-17T02:39:40;101416.59;;;0.81;81.14
75455;BME280;64035;48.358;2.122;2022-12-17T02:40:59;101410.78;;;0.73;81.18
75455;BME280;64035;48.358;2.122;2022-12-17T02:42:20;101415.41;;;0.77;81.30
75455;BME280;64035;48.358;2.122;2022-12-17T02:43:42;101419.38;;;0.75;80.53
75455;BME280;64035;48.358;2.122;2022-12-17T02:45:02;101426.06;;;0.75;81.36
75455;BME280;64035;48.358;2.122;2022-12-17T02:46:22;101418.19;;;0.72;80.55
75455;BME280;64035;48.358;2.122;2022-12-17T02:47:41;101418.03;;;0.70;81.26
75455;BME280;64035;48.358;2.122;2022-12-17T02:49:02;101419.97;;;0.73;81.58
75455;BME280;64035;48.358;2.122;2022-12-17T02:50:22;101426.06;;;0.75;80.88
75455;BME280;64035;48.358;2.122;2022-12-17T02:51:43;101426.94;;;0.75;81.76
75455;BME280;64035;48.358;2.122;2022-12-17T02:53:05;101431.72;;;0.81;81.16
75455;BME280;64035;48.358;2.122;2022-12-17T02:54:28;101430.69;;;0.79;81.02
75455;BME280;64035;48.358;2.122;2022-12-17T02:55:48;101431.41;;;0.78;81.49
75455;BME280;64035;48.358;2.122;2022-12-17T02:57:09;101429.63;;;0.77;81.46
75455;BME280;64035;48.358;2.122;2022-12-17T02:58:29;101424.25;;;0.74;80.55
75455;BME280;64035;48.358;2.122;2022-12-17T02:59:59;101422.34;;;0.71;80.51
75455;BME280;64035;48.358;2.122;2022-12-17T03:01:18;101443.13;;;0.77;80.89
75455;BME280;64035;48.358;2.122;2022-12-17T03:02:38;101440.44;;;0.76;81.05
75455;BME280;64035;48.358;2.122;2022-12-17T03:03:57;101432.56;;;0.73;80.72
75455;BME280;64035;48.358;2.122;2022-12-17T03:05:16;101432.56;;;0.73;81.54
75455;BME280;64035;48.358;2.122;2022-12-17T03:06:35;101443.28;;;0.79;80.99
75455;BME280;64035;48.358;2.122;2022-12-17T03:07:54;101448.31;;;0.79;81.32
75455;BME280;64035;48.358;2.122;2022-12-17T03:09:14;101444.91;;;0.78;81.43
75455;BME280;64035;48.358;2.122;2022-12-17T03:10:34;101437.75;;;0.74;80.71
75455;BME280;64035;48.358;2.122;2022-12-17T03:11:52;101438.47;;;0.73;80.84
75455;BME280;64035;48.358;2.122;2022-12-17T03:13:29;101441.63;;;0.79;81.50
75455;BME280;64035;48.358;2.122;2022-12-17T03:14:48;101450.97;;;0.81;81.13
75455;BME280;64035;48.358;2.122;2022-12-17T03:16:11;101448.00;;;0.76;80.34
75455;BME280;64035;48.358;2.122;2022-12-17T03:17:30;101456.63;;;0.78;81.10
75455;BME280;64035;48.358;2.122;2022-12-17T03:18:50;101471.13;;;0.81;80.82
75455;BME280;64035;48.358;2.122;2022-12-17T03:20:09;101461.78;;;0.79;80.90
75455;BME280;64035;48.358;2.122;2022-12-17T03:21:28;101460.16;;;0.80;80.96
75455;BME280;64035;48.358;2.122;2022-12-17T03:22:47;101471.47;;;0.84;80.93
75455;BME280;64035;48.358;2.122;2022-12-17T03:24:06;101455.72;;;0.77;80.85
75455;BME280;64035;48.358;2.122;2022-12-17T03:25:25;101474.72;;;0.83;80.60
75455;BME280;64035;48.358;2.122;2022-12-17T03:26:44;101469.66;;;0.83;80.68
75455;BME280;64035;48.358;2.122;2022-12-17T03:28:05;101473.81;;;0.82;81.03
75455;BME280;64035;48.358;2.122;2022-12-17T03:29:25;101469.66;;;0.83;80.89
75455;BME280;64035;48.358;2.122;2022-12-17T03:30:44;101478.28;;;0.85;80.81
75455;BME280;64035;48.358;2.122;2022-12-17T03:32:04;101475.59;;;0.83;80.91
75455;BME280;64035;48.358;2.122;2022-12-17T03:33:24;101462.38;;;0.77;80.76
75455;BME280;64035;48.358;2.122;2022-12-17T03:34:43;101467.59;;;0.78;80.35
75455;BME280;64035;48.358;2.122;2022-12-17T03:36:02;101472.03;;;0.81;80.26
75455;BME280;64035;48.358;2.122;2022-12-17T03:37:21;101476.34;;;0.82;80.62
75455;BME280;64035;48.358;2.122;2022-12-17T03:38:40;101465.63;;;0.76;80.95
75455;BME280;64035;48.358;2.122;2022-12-17T03:39:59;101461.31;;;0.75;80.30
75455;BME280;64035;48.358;2.122;2022-12-17T03:41:18;101466.19;;;0.73;80.12
75455;BME280;64035;48.358;2.122;2022-12-17T03:42:36;101470.50;;;0.74;79.81
75455;BME280;64035;48.358;2.122;2022-12-17T03:43:55;101470.50;;;0.74;80.78
75455;BME280;64035;48.358;2.122;2022-12-17T03:45:14;101467.25;;;0.75;80.76
75455;BME280;64035;48.358;2.122;2022-12-17T03:46:33;101461.16;;;0.73;80.01
75455;BME280;64035;48.358;2.122;2022-12-17T03:48:05;101465.47;;;0.74;79.96
75455;BME280;64035;48.358;2.122;2022-12-17T03:49:24;101462.66;;;0.71;80.85
75455;BME280;64035;48.358;2.122;2022-12-17T03:50:43;101454.78;;;0.68;80.49
75455;BME280;64035;48.358;2.122;2022-12-17T03:52:06;101458.91;;;0.68;80.28
75455;BME280;64035;48.358;2.122;2022-12-17T03:53:26;101451.06;;;0.65;80.53
75455;BME280;64035;48.358;2.122;2022-12-17T03:54:44;101444.34;;;0.65;80.65
75455;BME280;64035;48.358;2.122;2022-12-17T03:56:04;101453.41;;;0.63;80.64
75455;BME280;64035;48.358;2.122;2022-12-17T03:57:23;101447.47;;;0.63;79.96
75455;BME280;64035;48.358;2.122;2022-12-17T03:58:42;101447.47;;;0.63;80.93
75455;BME280;64035;48.358;2.122;2022-12-17T04:00:01;101450.63;;;0.69;80.67
75455;BME280;64035;48.358;2.122;2022-12-17T04:01:20;101440.81;;;0.63;80.03
75455;BME280;64035;48.358;2.122;2022-12-17T04:02:39;101443.50;;;0.65;80.17
75455;BME280;64035;48.358;2.122;2022-12-17T04:03:58;101448.84;;;0.68;80.28
75455;BME280;64035;48.358;2.122;2022-12-17T04:05:17;101439.31;;;0.65;80.54
75455;BME280;64035;48.358;2.122;2022-12-17T04:06:36;101446.66;;;0.71;80.76
75455;BME280;64035;48.358;2.122;2022-12-17T04:07:55;101444.69;;;0.68;80.46
75455;BME280;64035;48.358;2.122;2022-12-17T04:09:13;101454.19;;;0.71;80.60
75455;BME280;64035;48.358;2.122;2022-12-17T04:10:32;101447.03;;;0.67;80.22
75455;BME280;64035;48.358;2.122;2022-12-17T04:11:51;101449.41;;;0.65;80.15
75455;BME280;64035;48.358;2.122;2022-12-17T04:13:10;101450.16;;;0.64;79.73
75455;BME280;64035;48.358;2.122;2022-12-17T04:14:29;101451.78;;;0.64;80.04
75455;BME280;64035;48.358;2.122;2022-12-17T04:15:49;101454.13;;;0.62;80.04
75455;BME280;64035;48.358;2.122;2022-12-17T04:17:11;101462.00;;;0.65;80.23
75455;BME280;64035;48.358;2.122;2022-12-17T04:18:29;101462.75;;;0.64;80.37
75455;BME280;64035;48.358;2.122;2022-12-17T04:19:49;101454.88;;;0.61;80.51
75455;BME280;64035;48.358;2.122;2022-12-17T04:21:08;101466.00;;;0.63;80.37
75455;BME280;64035;48.358;2.122;2022-12-17T04:22:27;101464.38;;;0.64;80.27
75455;BME280;64035;48.358;2.122;2022-12-17T04:23:46;101463.06;;;0.67;80.36
75455;BME280;64035;48.358;2.122;2022-12-17T04:25:06;101464.38;;;0.64;80.31
75455;BME280;64035;48.358;2.122;2022-12-17T04:26:25;101460.38;;;0.66;80.30
75455;BME280;64035;48.358;2.122;2022-12-17T04:27:44;101461.13;;;0.65;79.72
75455;BME280;64035;48.358;2.122;2022-12-17T04:29:14;101466.91;;;0.64;80.11
75455;BME280;64035;48.358;2.122;2022-12-17T04:30:33;101466.41;;;0.59;80.39
75455;BME280;64035;48.358;2.122;2022-12-17T04:31:52;101464.22;;;0.62;80.25
75455;BME280;64035;48.358;2.122;2022-12-17T04:33:11;101465.69;;;0.60;80.08
75455;BME280;64035;48.358;2.122;2022-12-17T04:34:30;101462.25;;;0.60;80.48
75455;BME280;64035;48.358;2.122;2022-12-17T04:35:49;101463.16;;;0.60;80.76
75455;BME280;64035;48.358;2.122;2022-12-17T04:37:07;101456.16;;;0.58;80.58
75455;BME280;64035;48.358;2.122;2022-12-17T04:38:26;101465.13;;;0.63;80.59
75455;BME280;64035;48.358;2.122;2022-12-17T04:39:45;101465.28;;;0.64;80.06
75455;BME280;64035;48.358;2.122;2022-12-17T04:41:04;101466.56;;;0.61;80.10
75455;BME280;64035;48.358;2.122;2022-12-17T04:42:24;101466.75;;;0.62;79.54
75455;BME280;64035;48.358;2.122;2022-12-17T04:43:43;101464.78;;;0.60;79.55
75455;BME280;64035;48.358;2.122;2022-12-17T04:45:02;101463.16;;;0.60;80.02
75455;BME280;64035;48.358;2.122;2022-12-17T04:46:21;101465.69;;;0.60;79.87
75455;BME280;64035;48.358;2.122;2022-12-17T04:47:40;101450.41;;;0.59;80.24
75455;BME280;64035;48.358;2.122;2022-12-17T04:48:59;101458.13;;;0.60;80.09
75455;BME280;64035;48.358;2.122;2022-12-17T04:50:18;101451.13;;;0.58;80.36
75455;BME280;64035;48.358;2.122;2022-12-17T04:51:37;101448.59;;;0.58;79.56
75455;BME280;64035;48.358;2.122;2022-12-17T04:53:04;101456.16;;;0.58;79.91
75455;BME280;64035;48.358;2.122;2022-12-17T04:54:23;101445.16;;;0.49;79.50
75455;BME280;64035;48.358;2.122;2022-12-17T04:55:42;101449.31;;;0.48;79.56
75455;BME280;64035;48.358;2.122;2022-12-17T04:57:01;101443.53;;;0.49;79.89
75455;BME280;64035;48.358;2.122;2022-12-17T04:58:21;101434.75;;;0.46;80.34
75455;BME280;64035;48.358;2.122;2022-12-17T04:59:40;101440.28;;;0.50;81.05
75455;BME280;64035;48.358;2.122;2022-12-17T05:00:59;101436.28;;;0.52;80.25
75455;BME280;64035;48.358;2.122;2022-12-17T05:02:18;101441.47;;;0.54;80.07
75455;BME280;64035;48.358;2.122;2022-12-17T05:03:37;101435.00;;;0.56;80.46
75455;BME280;64035;48.358;2.122;2022-12-17T05:04:56;101438.22;;;0.55;80.31
75455;BME280;64035;48.358;2.122;2022-12-17T05:06:15;101438.22;;;0.55;80.52
75455;BME280;64035;48.358;2.122;2022-12-17T05:07:34;101431.84;;;0.50;79.86
75455;BME280;64035;48.358;2.122;2022-12-17T05:09:03;101443.66;;;0.51;79.33
75455;BME280;64035;48.358;2.122;2022-12-17T05:10:22;101446.06;;;0.49;79.82
75455;BME280;64035;48.358;2.122;2022-12-17T05:11:41;101453.91;;;0.52;80.06
75455;BME280;64035;48.358;2.122;2022-12-17T05:13:00;101450.94;;;0.48;80.03
75455;BME280;64035;48.358;2.122;2022-12-17T05:14:19;101461.16;;;0.49;79.53
75455;BME280;64035;48.358;2.122;2022-12-17T05:15:38;101466.34;;;0.51;79.99
75455;BME280;64035;48.358;2.122;2022-12-17T05:16:57;101473.34;;;0.53;79.99
75455;BME280;64035;48.358;2.122;2022-12-17T05:18:17;101478.38;;;0.53;80.07
75455;BME280;64035;48.358;2.122;2022-12-17T05:19:36;101479.25;;;0.54;80.43
75455;BME280;64035;48.358;2.122;2022-12-17T05:20:55;101476.56;;;0.52;79.90
75455;BME280;64035;48.358;2.122;2022-12-17T05:22:14;101490.22;;;0.54;79.87
75455;BME280;64035;48.358;2.122;2022-12-17T05:23:36;101489.91;;;0.51;79.90
75455;BME280;64035;48.358;2.122;2022-12-17T05:24:55;101495.53;;;0.49;79.08
75455;BME280;64035;48.358;2.122;2022-12-17T05:26:21;101498.94;;;0.49;79.35
75455;BME280;64035;48.358;2.122;2022-12-17T05:27:40;101491.63;;;0.44;79.70
75455;BME280;64035;48.358;2.122;2022-12-17T05:28:59;101498.44;;;0.45;79.14
75455;BME280;64035;48.358;2.122;2022-12-17T05:30:18;101493.50;;;0.37;79.50
75455;BME280;64035;48.358;2.122;2022-12-17T05:31:40;101493.19;;;0.34;79.68
75455;BME280;64035;48.358;2.122;2022-12-17T05:33:01;101498.41;;;0.36;79.84
75455;BME280;64035;48.358;2.122;2022-12-17T05:34:20;101509.94;;;0.34;79.81
75455;BME280;64035;48.358;2.122;2022-12-17T05:35:39;101500.25;;;0.30;79.76
75455;BME280;64035;48.358;2.122;2022-12-17T05:36:58;101497.59;;;0.28;79.77
75455;BME280;64035;48.358;2.122;2022-12-17T05:38:17;101490.19;;;0.30;79.50
75455;BME280;64035;48.358;2.122;2022-12-17T05:39:36;101500.84;;;0.27;79.46
75455;BME280;64035;48.358;2.122;2022-12-17T05:40:56;101499.63;;;0.24;79.32
75455;BME280;64035;48.358;2.122;2022-12-17T05:42:15;101493.69;;;0.23;80.08
75455;BME280;64035;48.358;2.122;2022-12-17T05:43:34;101504.09;;;0.26;79.65
75455;BME280;64035;48.358;2.122;2022-12-17T05:44:53;101503.75;;;0.23;79.43
75455;BME280;64035;48.358;2.122;2022-12-17T05:46:12;101502.56;;;0.20;79.38
75455;BME280;64035;48.358;2.122;2022-12-17T05:47:31;101506.25;;;0.23;79.79
75455;BME280;64035;48.358;2.122;2022-12-17T05:48:50;101499.88;;;0.18;79.63
75455;BME280;64035;48.358;2.122;2022-12-17T05:50:09;101494.75;;;0.10;79.45
75455;BME280;64035;48.358;2.122;2022-12-17T05:51:28;101507.34;;;0.10;79.25
75455;BME280;64035;48.358;2.122;2022-12-17T05:52:47;101518.47;;;0.12;79.46
75455;BME280;64035;48.358;2.122;2022-12-17T05:54:06;101511.81;;;0.12;80.15
75455;BME280;64035;48.358;2.122;2022-12-17T05:55:25;101501.56;;;0.11;79.97
75455;BME280;64035;48.358;2.122;2022-12-17T05:56:44;101504.09;;;0.11;79.87
75455;BME280;64035;48.358;2.122;2022-12-17T05:58:09;101493.94;;;0.02;79.59
75455;BME280;64035;48.358;2.122;2022-12-17T05:59:29;101509.38;;;0.05;79.24
75455;BME280;64035;48.358;2.122;2022-12-17T06:00:48;101498.41;;;0.05;79.83
75455;BME280;64035;48.358;2.122;2022-12-17T06:02:07;101499.88;;;0.03;79.81
75455;BME280;64035;48.358;2.122;2022-12-17T06:03:26;101511.72;;;0.04;79.52
75455;BME280;64035;48.358;2.122;2022-12-17T06:04:45;101506.22;;;-0.01;80.18
75455;BME280;64035;48.358;2.122;2022-12-17T06:06:04;101524.84;;;0.01;79.93
75455;BME280;64035;48.358;2.122;2022-12-17T06:07:24;101528.28;;;0.02;79.47
75455;BME280;64035;48.358;2.122;2022-12-17T06:08:42;101524.72;;;-0.01;80.00
75455;BME280;64035;48.358;2.122;2022-12-17T06:10:21;101525.63;;;0.00;79.53
75455;BME280;64035;48.358;2.122;2022-12-17T06:11:40;101531.50;;;0.00;79.82
75455;BME280;64035;48.358;2.122;2022-12-17T06:12:59;101529.88;;;0.01;80.09
75455;BME280;64035;48.358;2.122;2022-12-17T06:14:32;101538.91;;;-0.01;80.15
75455;BME280;64035;48.358;2.122;2022-12-17T06:15:52;101538.91;;;-0.01;79.46
75455;BME280;64035;48.358;2.122;2022-12-17T06:17:11;101532.47;;;-0.06;79.32
75455;BME280;64035;48.358;2.122;2022-12-17T06:18:30;101539.47;;;-0.04;79.74
75455;BME280;64035;48.358;2.122;2022-12-17T06:19:49;101533.22;;;-0.07;79.83
75455;BME280;64035;48.358;2.122;2022-12-17T06:21:08;101551.88;;;-0.05;79.69
75455;BME280;64035;48.358;2.122;2022-12-17T06:22:27;101552.41;;;-0.01;80.35
75455;BME280;64035;48.358;2.122;2022-12-17T06:23:46;101540.03;;;-0.06;80.20
75455;BME280;64035;48.358;2.122;2022-12-17T06:25:05;101541.81;;;-0.05;79.86
75455;BME280;64035;48.358;2.122;2022-12-17T06:26:25;101541.56;;;0.00;80.03
75455;BME280;64035;48.358;2.122;2022-12-17T06:27:44;101537.78;;;0.04;79.90
75455;BME280;64035;48.358;2.122;2022-12-17T06:29:03;101541.03;;;0.03;79.64
75455;BME280;64035;48.358;2.122;2022-12-17T06:30:22;101540.13;;;0.03;79.87
75455;BME280;64035;48.358;2.122;2022-12-17T06:31:41;101536.72;;;0.02;79.90
75455;BME280;64035;48.358;2.122;2022-12-17T06:33:04;101531.50;;;0.00;79.23
75455;BME280;64035;48.358;2.122;2022-12-17T06:34:24;101533.47;;;0.03;79.95
75455;BME280;64035;48.358;2.122;2022-12-17T06:35:43;101528.59;;;0.05;80.19
75455;BME280;64035;48.358;2.122;2022-12-17T06:37:01;101535.25;;;0.04;79.94
75455;BME280;64035;48.358;2.122;2022-12-17T06:38:20;101531.31;;;0.06;80.15
75455;BME280;64035;48.358;2.122;2022-12-17T06:39:39;101547.03;;;0.12;80.17
75455;BME280;64035;48.358;2.122;2022-12-17T06:41:01;101535.91;;;0.10;79.88
75455;BME280;64035;48.358;2.122;2022-12-17T06:42:20;101546.16;;;0.12;79.21
75455;BME280;64035;48.358;2.122;2022-12-17T06:43:39;101541.13;;;0.12;79.23
75455;BME280;64035;48.358;2.122;2022-12-17T06:44:58;101547.78;;;0.11;79.63
75455;BME280;64035;48.358;2.122;2022-12-17T06:46:17;101540.78;;;0.09;79.54
75455;BME280;64035;48.358;2.122;2022-12-17T06:47:36;101551.19;;;0.12;79.67
75455;BME280;64035;48.358;2.122;2022-12-17T06:48:55;101550.13;;;0.10;79.55
75455;BME280;64035;48.358;2.122;2022-12-17T06:50:14;101554.59;;;0.12;78.88
75455;BME280;64035;48.358;2.122;2022-12-17T06:51:33;101553.88;;;0.13;79.34
75455;BME280;64035;48.358;2.122;2022-12-17T06:53:03;101555.25;;;0.18;79.92
75455;BME280;64035;48.358;2.122;2022-12-17T06:54:23;101548.25;;;0.16;80.06
75455;BME280;64035;48.358;2.122;2022-12-17T06:55:41;101545.72;;;0.16;78.79
75455;BME280;64035;48.358;2.122;2022-12-17T06:57:01;101544.53;;;0.12;78.90
75455;BME280;64035;48.358;2.122;2022-12-17T06:58:30;101535.59;;;0.07;78.74
75455;BME280;64035;48.358;2.122;2022-12-17T06:59:49;101552.81;;;0.11;78.76
75455;BME280;64035;48.358;2.122;2022-12-17T07:01:08;101544.59;;;0.05;78.65
75455;BME280;64035;48.358;2.122;2022-12-17T07:02:27;101558.00;;;0.13;78.75
75455;BME280;64035;48.358;2.122;2022-12-17T07:03:46;101559.63;;;0.12;78.73
75455;BME280;64035;48.358;2.122;2022-12-17T07:05:05;101555.16;;;0.10;78.38
75455;BME280;64035;48.358;2.122;2022-12-17T07:06:24;101559.28;;;0.09;78.71
75455;BME280;64035;48.358;2.122;2022-12-17T07:07:43;101557.19;;;0.05;78.46
75455;BME280;64035;48.358;2.122;2022-12-17T07:09:07;101557.38;;;0.07;79.16
75455;BME280;64035;48.358;2.122;2022-12-17T07:10:26;101557.50;;;0.08;79.19
75455;BME280;64035;48.358;2.122;2022-12-17T07:11:45;101569.34;;;0.09;78.76